Airfield :
LOGIN :

Register | Disclaimer

   EN    FR    IT 

 










Legend :    VFR   Marginal VFR   IFR   Intensive IFR   Very Intensive IFR
Visi :
Ceiling :
>= 8 km
>= 3000ft
5 to 8 km
1000 to 3000 ft
1500m to 5 km
500 to 1000 ft
800 to 1500m
200 to 500 ft
< 800m
< 200 ft
Symbols :   Thunderstorms  Fog  Heavy snow  Heavy precipitations  Wind > 20 kt
SIGMETs :     Misc.  Thunderstorms  Icing  Turbulence  Mountain Waves  Volcanic Ashes







- Airport Elevation : 147 ft
- IATA code : DUS


EDDL - Düsseldorf Int.

CURRENT METAR :
  • 101850Z 27009KT 9999 FEW028 04/01 Q1022 NOSIG

EXPIRED METARs :
  • 101820Z 26008KT 9999 FEW028 04/01 Q1022 NOSIG
  • 101750Z 29008KT 9999 FEW018 05/01 Q1022 NOSIG
  • 101720Z 29009KT 9999 FEW018 05/01 Q1022 NOSIG
  • 101650Z 28007KT 9999 FEW018 BKN048 05/02 Q1022 NOSIG
  • 101620Z 28008KT 9999 FEW014 05/02 Q1022 NOSIG

TAF TAF EDDL
Valid from the 10 at 18:00 until the 12 at 00:00 UTC


101700Z 1018/1124 27010KT 9999 SCT020
BECMG 1115/1118 30005KT
No reported NOTAMs for that airfield.
1 SIGMET reported for the Langen FIR (EDGG) :
 
Severe turbulence
EDGG SIGMET 2 VALID 101704/102000 EDZF
EDGG LANGEN FIR SEV TURB FCST APRX 40NM WID LINE BTN N5103 E00555 - N4755 E00906 FL180/240 MOV E NC=



MET'MAP, your aeronautical weather chart ! - Copyright ORBIFLY December 2007 - Disclaimer

ORBIFLY MET'MAP TEAM :

Programming & Development : Alexandra Zaïnal
Concept & Development : Baudouin d'Aumeries
Co-Development & Prog : Marc-Olivier Méhu
Technical & hardware support : Manuel Goepfert

Contact : metmap@orbifly.com




SOURCES & CREDITS :

   NOAA